Angoon Seaplane Base

Airport
ICAO code: 
PAGN
IATA Code: 
AGN
Summary
ICAO Region: 
NAM
Territory: 
Location: 
Angoon, Alaska
Serving: 
Angoon
Coordinates: 
Aerial View: 
57° 30' 13" N, 134° 35' 6" W
Metar
Observation
PAGN 241456Z AUTO 14004KT 8SM OVC028 01/01 A3034 RMK AO2 SLP264 T00060006 56014 FZRANO
Station
Angoon
Date/Time
2022-01-24 14:56:00
Wind direction
140°
Wind speed
04 kts
Lowest cloud amount
overcast
Temperature
0.6°C
Dew point
0.6°C
Humidity
100%
Weather condition
n/a

Runways

Designator Length Width Surface Rops
NW/SE 3048 274 WATER No/No
Airport map: 
Aerial View: 

SKYbrary Partners:

Safety knowledge contributed by: